Time;durP1;ratioP1;P1;durP2;ratioP2;P2;SDS_P1;SDS_P2;PMS_P1;PMS_P2;Temp;Humidity;BMP_temperature;BMP_pressure;BME280_temperature;BME280_humidity;BME280_pressure;Samples;Min_cycle;Max_cycle;Signal;HPM_P1;HPM_P2
2022/06/19 00:01:59;;;;;;;;;13.40;13.00;;;;;-149.35;100.00;64108.03;5017575;28;45493;-50
2022/06/19 00:04:24;;;;;;;;;15.00;12.50;;;;;-149.35;100.00;64108.03;5017859;28;45953;-53
2022/06/19 00:06:50;;;;;;;;;14.00;14.00;;;;;-149.35;100.00;64108.03;5017025;28;45392;-52
2022/06/19 00:09:15;;;;;;;;;17.50;14.50;;;;;-149.35;100.00;64108.03;5018174;28;45318;-51
2022/06/19 00:11:41;;;;;;;;;13.00;13.00;;;;;-149.35;100.00;64108.03;5017187;28;45680;-53
2022/06/19 00:14:07;;;;;;;;;16.75;15.00;;;;;-149.35;100.00;64108.03;5016791;28;45551;-53
2022/06/19 00:16:32;;;;;;;;;17.00;15.00;;;;;-149.35;100.00;64108.03;5017946;28;45358;-53
2022/06/19 00:18:58;;;;;;;;;15.25;14.25;;;;;-149.35;100.00;64108.03;5016838;28;45345;-54
2022/06/19 00:21:23;;;;;;;;;21.75;14.00;;;;;-149.35;100.00;64108.03;5017923;28;45519;-52
2022/06/19 00:23:49;;;;;;;;;13.50;12.50;;;;;-149.35;100.00;64108.03;5018052;28;45572;-54
2022/06/19 00:26:15;;;;;;;;;15.00;15.00;;;;;-149.35;100.00;64108.03;5018446;28;45335;-50
2022/06/19 00:28:40;;;;;;;;;11.75;11.50;;;;;-149.35;100.00;64108.03;5016828;28;45309;-51
2022/06/19 00:31:07;;;;;;;;;13.25;13.00;;;;;-149.35;100.00;64108.03;5017322;28;45605;-53
2022/06/19 00:33:32;;;;;;;;;13.00;12.40;;;;;-149.35;100.00;64108.03;5017567;28;46128;-52
2022/06/19 00:35:58;;;;;;;;;14.25;12.50;;;;;-149.35;100.00;64108.03;5016697;28;45286;-54
2022/06/19 00:38:23;;;;;;;;;10.75;9.75;;;;;-149.35;100.00;64108.03;5016643;28;45301;-51
2022/06/19 00:40:49;;;;;;;;;12.25;12.25;;;;;-149.35;100.00;64108.03;5018392;28;45528;-53
2022/06/19 00:43:14;;;;;;;;;9.00;9.00;;;;;-149.35;100.00;64108.03;5017938;28;45416;-54
2022/06/19 00:45:50;;;;;;;;;10.00;9.00;;;;;-149.35;100.00;64108.03;5017726;28;45392;-51
2022/06/19 00:48:24;;;;;;;;;10.40;9.00;;;;;-149.35;100.00;64108.03;5016807;28;45451;-51
2022/06/19 00:50:51;;;;;;;;;13.40;9.20;;;;;-149.35;100.00;64108.03;5017972;28;45239;-52
2022/06/19 00:53:46;;;;;;;;;10.00;8.40;;;;;-149.35;100.00;64108.03;5016813;28;46929;-52
2022/06/19 00:56:17;;;;;;;;;8.60;7.40;;;;;-149.35;100.00;64108.03;5017837;28;45326;-53
2022/06/19 00:58:42;;;;;;;;;11.00;9.80;;;;;-149.35;100.00;64108.03;5000648;28;45273;-50
2022/06/19 01:01:11;;;;;;;;;9.50;8.00;;;;;-149.35;100.00;64108.03;5016990;28;45367;-52
2022/06/19 01:04:14;;;;;;;;;9.00;9.00;;;;;-149.35;100.00;64108.03;5016841;28;45495;-50
2022/06/19 01:06:39;;;;;;;;;8.80;8.40;;;;;-149.35;100.00;64108.03;4988368;28;45532;-52
2022/06/19 01:09:05;;;;;;;;;10.00;9.00;;;;;-149.35;100.00;64108.03;5028834;28;45242;-51
2022/06/19 01:11:31;;;;;;;;;11.50;7.75;;;;;-149.35;100.00;64108.03;5015880;28;46040;-54
2022/06/19 01:13:57;;;;;;;;;8.00;6.60;;;;;-149.35;100.00;64108.03;5017140;28;45428;-51
2022/06/19 01:16:22;;;;;;;;;8.25;7.75;;;;;-149.35;100.00;64108.03;5016295;28;45410;-55
2022/06/19 01:18:48;;;;;;;;;9.50;8.75;;;;;-149.35;100.00;64108.03;5016548;28;45477;-51
2022/06/19 01:21:21;;;;;;;;;8.50;7.50;;;;;-149.35;100.00;64108.03;5017094;28;45512;-51
2022/06/19 01:24:04;;;;;;;;;11.40;10.20;;;;;-149.35;100.00;64108.03;5015633;28;45459;-51
2022/06/19 01:26:31;;;;;;;;;10.40;9.00;;;;;-149.35;100.00;64108.03;5016595;28;45289;-53
2022/06/19 01:28:56;;;;;;;;;7.20;7.20;;;;;-149.35;100.00;64108.03;5015882;28;45285;-51
2022/06/19 01:31:31;;;;;;;;;11.25;8.00;;;;;-149.35;100.00;64108.03;4999633;28;46135;-54
2022/06/19 01:33:59;;;;;;;;;9.00;8.00;;;;;-149.35;100.00;64108.03;5015397;28;46779;-54
2022/06/19 01:36:25;;;;;;;;;13.00;12.40;;;;;-149.35;100.00;64108.03;5015487;28;45467;-51
2022/06/19 01:38:51;;;;;;;;;8.00;6.25;;;;;-149.35;100.00;64108.03;5032426;28;45445;-55
2022/06/19 01:41:27;;;;;;;;;11.40;9.60;;;;;-149.35;100.00;64108.03;5017065;28;45243;-55
2022/06/19 01:43:52;;;;;;;;;13.00;9.60;;;;;-149.35;100.00;64108.03;5015213;28;46304;-51
2022/06/19 01:46:18;;;;;;;;;10.50;10.50;;;;;-149.35;100.00;64108.03;5015434;28;45352;-55
2022/06/19 01:48:43;;;;;;;;;10.25;10.25;;;;;-149.35;100.00;64108.03;5015544;28;45243;-54
2022/06/19 01:51:09;;;;;;;;;16.50;12.00;;;;;-149.35;100.00;64108.03;5015319;28;45273;-50
2022/06/19 01:53:44;;;;;;;;;11.50;11.50;;;;;-149.35;100.00;64108.03;5016453;28;45926;-52
2022/06/19 01:56:10;;;;;;;;;15.20;12.20;;;;;-149.35;100.00;64108.03;5014874;28;45489;-47
2022/06/19 01:58:37;;;;;;;;;12.25;11.50;;;;;-149.35;100.00;64108.03;5015641;28;45260;-50
2022/06/19 02:01:06;;;;;;;;;14.00;13.40;;;;;-149.35;100.00;64108.03;4998759;28;45450;-54
2022/06/19 02:03:40;;;;;;;;;13.80;12.20;;;;;-149.35;100.00;64108.03;4998702;28;45895;-54
2022/06/19 02:06:07;;;;;;;;;15.20;12.80;;;;;-149.35;100.00;64108.03;5016225;28;45282;-51
2022/06/19 02:08:33;;;;;;;;;14.20;13.00;;;;;-149.35;100.00;64108.03;4998606;28;45334;-54
2022/06/19 02:10:59;;;;;;;;;12.80;11.20;;;;;-149.35;100.00;64108.03;5012576;28;45557;-51
2022/06/19 02:13:25;;;;;;;;;12.50;9.25;;;;;-149.35;100.00;64108.03;5011226;28;45353;-52
2022/06/19 02:15:51;;;;;;;;;10.80;10.20;;;;;-149.35;100.00;64108.03;5013623;28;45419;-54
2022/06/19 02:18:20;;;;;;;;;9.00;8.75;;;;;-149.35;100.00;64108.03;5016456;28;45834;-54
2022/06/19 02:20:46;;;;;;;;;13.00;10.40;;;;;-149.35;100.00;64108.03;5014659;28;45412;-49
2022/06/19 02:23:11;;;;;;;;;14.00;11.00;;;;;-149.35;100.00;64108.03;5015238;28;47071;-55
2022/06/19 02:25:40;;;;;;;;;11.00;9.00;;;;;-149.35;100.00;64108.03;5016268;28;45404;-50
2022/06/19 02:28:06;;;;;;;;;13.20;9.80;;;;;-149.35;100.00;64108.03;5015186;28;45512;-49
2022/06/19 02:30:31;;;;;;;;;9.50;9.50;;;;;-149.35;100.00;64108.03;4998427;28;45344;-54
2022/06/19 02:32:57;;;;;;;;;11.00;8.00;;;;;-149.35;100.00;64108.03;5015065;28;46451;-54
2022/06/19 02:35:24;;;;;;;;;12.25;10.00;;;;;-149.35;100.00;64108.03;5014629;28;45356;-50
2022/06/19 02:37:51;;;;;;;;;11.40;9.40;;;;;-149.35;100.00;64108.03;5014895;28;45436;-54
2022/06/19 02:40:21;;;;;;;;;7.40;6.00;;;;;-149.35;100.00;64108.03;5014648;28;45461;-51
2022/06/19 02:42:47;;;;;;;;;10.60;8.00;;;;;-149.35;100.00;64108.03;5014679;28;45865;-53
2022/06/19 02:45:20;;;;;;;;;10.00;9.00;;;;;-149.35;100.00;64108.03;5014868;28;45487;-49
2022/06/19 02:47:46;;;;;;;;;8.00;8.00;;;;;-149.35;100.00;64108.03;5014711;28;45339;-50
2022/06/19 02:50:19;;;;;;;;;11.50;9.50;;;;;-149.35;100.00;64108.03;5014925;28;45336;-54
2022/06/19 02:52:45;;;;;;;;;13.60;9.80;;;;;-149.35;100.00;64108.03;5014484;28;46939;-51
2022/06/19 02:55:10;;;;;;;;;11.00;8.75;;;;;-149.35;100.00;64108.03;5014675;28;45240;-50
2022/06/19 02:57:36;;;;;;;;;9.75;8.75;;;;;-149.35;100.00;64108.03;5014764;28;45775;-52
2022/06/19 03:00:04;;;;;;;;;12.25;10.50;;;;;-149.35;100.00;64108.03;5014811;28;45384;-50
2022/06/19 03:02:31;;;;;;;;;12.00;9.80;;;;;-149.35;100.00;64108.03;5030739;28;46487;-53
2022/06/19 03:04:58;;;;;;;;;12.80;10.20;;;;;-149.35;100.00;64108.03;5014735;28;45319;-53
2022/06/19 03:07:25;;;;;;;;;10.80;9.40;;;;;-149.35;100.00;64108.03;5014763;28;45169;-52
2022/06/19 03:09:50;;;;;;;;;13.60;13.60;;;;;-149.35;100.00;64108.03;5014315;28;45545;-53
2022/06/19 03:12:16;;;;;;;;;11.50;10.25;;;;;-149.35;100.00;64108.03;4988528;28;45977;-51
2022/06/19 03:14:42;;;;;;;;;9.25;8.75;;;;;-149.35;100.00;64108.03;5013904;28;45821;-54
2022/06/19 03:17:10;;;;;;;;;10.80;9.60;;;;;-149.35;100.00;64108.03;5014834;28;45406;-54
2022/06/19 03:19:35;;;;;;;;;12.20;10.60;;;;;-149.35;100.00;64108.03;5014783;28;45352;-50
2022/06/19 03:22:02;;;;;;;;;11.00;11.00;;;;;-149.35;100.00;64108.03;5015094;28;46903;-52
2022/06/19 03:24:27;;;;;;;;;11.60;10.40;;;;;-149.35;100.00;64108.03;5015340;28;45223;-49
2022/06/19 03:26:53;;;;;;;;;13.50;9.75;;;;;-149.35;100.00;64108.03;5015106;28;45294;-53
2022/06/19 03:29:19;;;;;;;;;8.50;7.50;;;;;-149.35;100.00;64108.03;5015894;28;45301;-51
2022/06/19 03:31:44;;;;;;;;;9.75;8.75;;;;;-149.35;100.00;64108.03;5013188;28;45500;-51
2022/06/19 03:34:10;;;;;;;;;8.00;8.00;;;;;-149.35;100.00;64108.03;5013761;28;45306;-51
2022/06/19 03:36:35;;;;;;;;;9.75;8.75;;;;;-149.35;100.00;64108.03;5015221;28;45410;-53
2022/06/19 03:39:01;;;;;;;;;11.25;8.25;;;;;-149.35;100.00;64108.03;5014120;28;45733;-53
2022/06/19 03:41:26;;;;;;;;;8.75;8.75;;;;;-149.35;100.00;64108.03;5014997;28;45421;-52
2022/06/19 03:43:51;;;;;;;;;10.25;9.00;;;;;-149.35;100.00;64108.03;5014734;28;45279;-53
2022/06/19 03:46:18;;;;;;;;;12.00;10.00;;;;;-149.35;100.00;64108.03;5015218;28;45391;-51
2022/06/19 03:48:46;;;;;;;;;12.00;12.00;;;;;-149.35;100.00;64108.03;5015303;28;45394;-51
2022/06/19 03:51:11;;;;;;;;;15.60;13.80;;;;;-149.35;100.00;64108.03;5015690;28;46687;-50
2022/06/19 03:53:37;;;;;;;;;16.25;13.00;;;;;-149.35;100.00;64108.03;5017422;28;45448;-50
2022/06/19 03:56:03;;;;;;;;;14.75;12.50;;;;;-149.35;100.00;64108.03;5017040;28;45375;-52
2022/06/19 03:58:45;;;;;;;;;14.50;11.25;;;;;-149.35;100.00;64108.03;5017504;28;45946;-50
2022/06/19 04:01:15;;;;;;;;;16.20;12.40;;;;;-149.35;100.00;64108.03;5015711;28;46698;-53
2022/06/19 04:03:40;;;;;;;;;15.00;10.60;;;;;-149.35;100.00;64108.03;5017339;28;45435;-54
2022/06/19 04:06:07;;;;;;;;;10.50;10.50;;;;;-149.35;100.00;64108.03;5018188;28;45347;-50
2022/06/19 04:08:33;;;;;;;;;13.00;12.00;;;;;-149.35;100.00;64108.03;5017187;28;45451;-52
2022/06/19 04:10:58;;;;;;;;;13.50;13.00;;;;;-149.35;100.00;64108.03;5013608;28;45569;-51
2022/06/19 04:13:24;;;;;;;;;12.25;10.00;;;;;-149.35;100.00;64108.03;5013719;28;45412;-52
2022/06/19 04:15:49;;;;;;;;;14.75;10.75;;;;;-149.35;100.00;64108.03;5017296;28;45524;-53
2022/06/19 04:18:14;;;;;;;;;11.00;11.00;;;;;-149.35;100.00;64108.03;5017986;28;45444;-53
2022/06/19 04:20:40;;;;;;;;;10.50;8.00;;;;;-149.35;100.00;64108.03;5017954;28;46377;-51
2022/06/19 04:23:08;;;;;;;;;12.25;10.50;;;;;-149.35;100.00;64108.03;5017469;28;45512;-51
2022/06/19 04:25:34;;;;;;;;;18.40;14.80;;;;;-149.35;100.00;64108.03;5000642;28;45295;-53
2022/06/19 04:27:59;;;;;;;;;13.50;11.25;;;;;-149.35;100.00;64108.03;5017096;28;45270;-52
2022/06/19 04:30:25;;;;;;;;;14.00;12.75;;;;;-149.35;100.00;64108.03;5017534;28;45821;-50
2022/06/19 04:32:51;;;;;;;;;13.00;10.00;;;;;-149.35;100.00;64108.03;5016625;28;45293;-54
2022/06/19 04:35:16;;;;;;;;;13.00;11.25;;;;;-149.35;100.00;64108.03;5017848;28;45380;-52
2022/06/19 04:37:43;;;;;;;;;13.50;9.50;;;;;-149.35;100.00;64108.03;5018171;28;45372;-48
2022/06/19 04:40:10;;;;;;;;;14.80;13.80;;;;;-149.35;100.00;64108.03;5017737;28;46539;-53
2022/06/19 04:42:36;;;;;;;;;10.20;10.20;;;;;-149.35;100.00;64108.03;5016589;28;45585;-54
2022/06/19 04:45:01;;;;;;;;;12.75;11.25;;;;;-149.35;100.00;64108.03;5017519;28;45371;-49
2022/06/19 04:47:27;;;;;;;;;10.75;10.75;;;;;-149.35;100.00;64108.03;5017574;28;45387;-52
2022/06/19 04:49:52;;;;;;;;;11.75;10.75;;;;;-149.35;100.00;64108.03;5017121;28;46785;-50
2022/06/19 04:52:18;;;;;;;;;12.25;11.00;;;;;-149.35;100.00;64108.03;5015994;28;45348;-53
2022/06/19 04:54:45;;;;;;;;;10.75;10.75;;;;;-149.35;100.00;64108.03;5017649;28;45350;-51
2022/06/19 04:57:11;;;;;;;;;12.20;10.60;;;;;-149.35;100.00;64108.03;5017527;28;45612;-52
2022/06/19 04:59:36;;;;;;;;;9.50;9.50;;;;;-149.35;100.00;64108.03;5016001;28;45546;-55
2022/06/19 05:02:02;;;;;;;;;8.50;8.00;;;;;-149.35;100.00;64108.03;5016265;28;45392;-54
2022/06/19 05:04:28;;;;;;;;;12.75;9.75;;;;;-149.35;100.00;64108.03;5017462;28;45358;-54
2022/06/19 05:06:53;;;;;;;;;12.50;12.50;;;;;-149.35;100.00;64108.03;5017517;28;45486;-54
2022/06/19 05:09:19;;;;;;;;;8.75;8.75;;;;;-149.35;100.00;64108.03;5016316;28;46441;-50
2022/06/19 05:11:44;;;;;;;;;12.50;9.50;;;;;-149.35;100.00;64108.03;5016905;28;45291;-50
2022/06/19 05:14:10;;;;;;;;;11.00;7.50;;;;;-149.35;100.00;64108.03;5016260;28;45452;-50
2022/06/19 05:16:35;;;;;;;;;13.50;7.50;;;;;-149.35;100.00;64108.03;5016031;28;45304;-52
2022/06/19 05:19:03;;;;;;;;;10.75;8.00;;;;;-149.35;100.00;64108.03;5017236;28;46682;-51
2022/06/19 05:21:28;;;;;;;;;9.00;8.80;;;;;-149.35;100.00;64108.03;5016700;28;45375;-52
2022/06/19 05:23:54;;;;;;;;;10.50;7.50;;;;;-149.35;100.00;64108.03;5017644;28;45227;-51
2022/06/19 05:26:25;;;;;;;;;7.00;6.00;;;;;-149.35;100.00;64108.03;5016569;28;46276;-54
2022/06/19 05:28:50;;;;;;;;;9.20;6.00;;;;;-149.35;100.00;64108.03;5015695;28;46876;-52
2022/06/19 05:31:16;;;;;;;;;7.25;6.50;;;;;-149.35;100.00;64108.03;5016256;28;45425;-51
2022/06/19 05:33:42;;;;;;;;;6.60;5.80;;;;;-149.35;100.00;64108.03;5015728;28;45509;-52
2022/06/19 05:36:07;;;;;;;;;7.50;6.75;;;;;-149.35;100.00;64108.03;5016319;28;45593;-55
2022/06/19 05:38:33;;;;;;;;;10.00;4.75;;;;;-149.35;100.00;64108.03;5016840;28;46784;-51
2022/06/19 05:40:59;;;;;;;;;6.75;6.00;;;;;-149.35;100.00;64108.03;5017152;28;45359;-53
2022/06/19 05:43:25;;;;;;;;;7.25;7.25;;;;;-149.35;100.00;64108.03;5016028;28;45433;-53
2022/06/19 05:45:59;;;;;;;;;10.20;5.40;;;;;-149.35;100.00;64108.03;5015552;28;45609;-49
2022/06/19 05:48:24;;;;;;;;;7.00;6.00;;;;;-149.35;100.00;64108.03;4999208;28;45495;-54
2022/06/19 05:51:00;;;;;;;;;4.50;4.25;;;;;-149.35;100.00;64108.03;5015309;28;45356;-55
2022/06/19 05:53:27;;;;;;;;;7.60;5.00;;;;;-149.35;100.00;64108.03;5017124;28;45337;-51
2022/06/19 05:55:52;;;;;;;;;4.60;4.60;;;;;-149.35;100.00;64108.03;5015721;28;45415;-51
2022/06/19 05:58:18;;;;;;;;;6.00;3.25;;;;;-149.35;100.00;64108.03;5015613;28;46506;-50
2022/06/19 06:00:43;;;;;;;;;5.75;5.75;;;;;-149.35;100.00;64108.03;4993296;28;45790;-50
2022/06/19 06:03:16;;;;;;;;;8.25;5.50;;;;;-149.35;100.00;64108.03;5012867;28;45366;-50
2022/06/19 06:05:43;;;;;;;;;5.60;5.00;;;;;-149.35;100.00;64108.03;5015801;28;45826;-53
2022/06/19 06:08:09;;;;;;;;;6.40;5.00;;;;;-149.35;100.00;64108.03;5015150;28;46556;-50
2022/06/19 06:10:34;;;;;;;;;7.75;3.75;;;;;-149.35;100.00;64108.03;5016742;28;45445;-50
2022/06/19 06:13:00;;;;;;;;;6.00;4.50;;;;;-149.35;100.00;64108.03;5014702;28;45480;-51
2022/06/19 06:15:26;;;;;;;;;6.50;5.00;;;;;-149.35;100.00;64108.03;5016795;28;45358;-53
2022/06/19 06:17:51;;;;;;;;;3.75;3.75;;;;;-149.35;100.00;64108.03;5016265;28;45769;-52
2022/06/19 06:20:17;;;;;;;;;6.00;5.25;;;;;-149.35;100.00;64108.03;5016040;28;45421;-50
2022/06/19 06:22:42;;;;;;;;;10.25;7.00;;;;;-149.35;100.00;64108.03;5014688;28;45266;-54
2022/06/19 06:25:10;;;;;;;;;6.00;5.50;;;;;-149.35;100.00;64108.03;5016270;28;45401;-55
2022/06/19 06:27:35;;;;;;;;;13.60;10.20;;;;;-149.35;100.00;64108.03;5014597;28;46436;-50
2022/06/19 06:30:01;;;;;;;;;8.75;7.50;;;;;-149.35;100.00;64108.03;5014608;28;45257;-52
2022/06/19 06:32:26;;;;;;;;;8.50;7.00;;;;;-149.35;100.00;64108.03;5016141;28;45302;-54
2022/06/19 06:34:52;;;;;;;;;9.00;8.00;;;;;-149.35;100.00;64108.03;5016167;28;45477;-52
2022/06/19 06:37:17;;;;;;;;;6.75;6.75;;;;;-149.35;100.00;64108.03;5015805;28;46791;-51
2022/06/19 06:39:43;;;;;;;;;6.75;5.75;;;;;-149.35;100.00;64108.03;5015933;28;45632;-50
2022/06/19 06:42:09;;;;;;;;;5.50;5.50;;;;;-149.35;100.00;64108.03;5015695;28;45256;-51
2022/06/19 06:44:34;;;;;;;;;5.75;4.75;;;;;-149.35;100.00;64108.03;5016208;28;45532;-52
2022/06/19 06:47:01;;;;;;;;;7.50;6.00;;;;;-149.35;100.00;64108.03;5015285;28;46880;-54
2022/06/19 06:49:27;;;;;;;;;8.00;7.00;;;;;-149.35;100.00;64108.03;5014818;28;45336;-55
2022/06/19 06:51:53;;;;;;;;;5.50;4.50;;;;;-149.35;100.00;64108.03;5014567;28;45354;-55
2022/06/19 06:54:18;;;;;;;;;5.75;4.50;;;;;-149.35;100.00;64108.03;5014560;28;45600;-52
2022/06/19 06:56:44;;;;;;;;;8.75;6.75;;;;;-149.35;100.00;64108.03;5015762;28;45354;-50
2022/06/19 06:59:10;;;;;;;;;6.25;5.00;;;;;-149.35;100.00;64108.03;5015255;28;45398;-54
2022/06/19 07:01:36;;;;;;;;;5.25;5.25;;;;;-149.35;100.00;64108.03;4993700;28;45521;-55
2022/06/19 07:04:01;;;;;;;;;5.20;4.20;;;;;-149.35;100.00;64108.03;5028684;28;45587;-52
2022/06/19 07:06:28;;;;;;;;;7.75;6.75;;;;;-149.35;100.00;64108.03;5014272;28;46509;-56
2022/06/19 07:08:54;;;;;;;;;8.00;5.80;;;;;-149.35;100.00;64108.03;5030790;28;45537;-54
2022/06/19 07:11:34;;;;;;;;;10.75;6.25;;;;;-149.35;100.00;64108.03;5015218;28;45393;-51
2022/06/19 07:13:59;;;;;;;;;6.20;5.00;;;;;-149.35;100.00;64108.03;4998426;28;45313;-54
2022/06/19 07:16:25;;;;;;;;;4.00;4.00;;;;;-149.35;100.00;64108.03;5015080;28;45353;-51
2022/06/19 07:18:52;;;;;;;;;8.00;4.00;;;;;-149.35;100.00;64108.03;5014081;28;45388;-52
2022/06/19 07:21:17;;;;;;;;;6.80;4.80;;;;;-149.35;100.00;64108.03;5015222;28;45425;-49
2022/06/19 07:23:43;;;;;;;;;4.50;4.50;;;;;-149.35;100.00;64108.03;5015820;28;45305;-51
2022/06/19 07:26:12;;;;;;;;;6.50;5.00;;;;;-149.35;100.00;64108.03;5016616;28;46542;-51
2022/06/19 07:28:39;;;;;;;;;5.40;5.40;;;;;-149.35;100.00;64108.03;5018736;28;45469;-49
2022/06/19 07:31:04;;;;;;;;;5.40;5.40;;;;;-149.35;100.00;64108.03;5001731;28;45348;-49
2022/06/19 07:33:30;;;;;;;;;6.00;4.00;;;;;-149.35;100.00;64108.03;5017694;28;45288;-50
2022/06/19 07:35:55;;;;;;;;;6.00;4.00;;;;;-149.35;100.00;64108.03;5017638;28;46629;-49
2022/06/19 07:38:20;;;;;;;;;6.75;5.25;;;;;-149.35;100.00;64108.03;5033798;28;45374;-51
2022/06/19 07:40:46;;;;;;;;;4.50;3.00;;;;;-149.35;100.00;64108.03;5018103;28;45463;-50
2022/06/19 07:43:11;;;;;;;;;6.00;4.75;;;;;-149.35;100.00;64108.03;5019291;28;45371;-51
2022/06/19 07:45:37;;;;;;;;;5.00;5.00;;;;;-149.35;100.00;64108.03;5018440;28;45820;-51
2022/06/19 07:50:47;;;;;;;;;4.00;4.00;;;;;-149.35;100.00;64108.03;5018456;28;45394;-53
2022/06/19 07:53:13;;;;;;;;;7.60;5.60;;;;;-149.35;100.00;64108.03;5019084;28;45561;-54
2022/06/19 07:55:39;;;;;;;;;6.25;6.25;;;;;-149.35;100.00;64108.03;5018419;28;46575;-51
2022/06/19 07:58:05;;;;;;;;;6.40;6.40;;;;;-149.35;100.00;64108.03;5018663;28;45361;-48
2022/06/19 08:00:32;;;;;;;;;7.00;6.00;;;;;-149.35;100.00;64108.03;5017230;28;45479;-51
2022/06/19 08:02:58;;;;;;;;;8.20;5.60;;;;;-149.35;100.00;64108.03;5017794;28;45685;-53
2022/06/19 08:05:29;;;;;;;;;11.00;8.25;;;;;-149.35;100.00;64108.03;5000856;28;46493;-51
2022/06/19 08:07:57;;;;;;;;;6.80;6.60;;;;;-149.35;100.00;64108.03;5017209;28;45268;-51
2022/06/19 08:10:35;;;;;;;;;8.80;7.20;;;;;-149.35;100.00;64108.03;5017424;28;45415;-52
2022/06/19 08:13:00;;;;;;;;;7.40;6.80;;;;;-149.35;100.00;64108.03;5017557;28;45584;-48
2022/06/19 08:15:26;;;;;;;;;6.00;4.50;;;;;-149.35;100.00;64108.03;5000755;28;48165;-49
2022/06/19 08:17:52;;;;;;;;;4.40;4.40;;;;;-149.35;100.00;64108.03;5017008;28;45337;-55
2022/06/19 08:20:18;;;;;;;;;6.25;5.00;;;;;-149.35;100.00;64108.03;5033839;28;45319;-52
2022/06/19 08:22:44;;;;;;;;;6.80;5.80;;;;;-149.35;100.00;64108.03;5029077;28;45392;-49
2022/06/19 08:25:11;;;;;;;;;5.75;4.00;;;;;-149.35;100.00;64108.03;5037892;28;46370;-48
2022/06/19 08:27:37;;;;;;;;;5.00;5.00;;;;;-149.35;100.00;64108.03;5027024;28;45913;-51
2022/06/19 08:30:14;;;;;;;;;5.60;5.60;;;;;-149.35;100.00;64108.03;5017891;28;45449;-49
2022/06/19 08:32:40;;;;;;;;;7.20;7.20;;;;;-149.35;100.00;64108.03;5015605;28;45427;-52
2022/06/19 08:35:06;;;;;;;;;8.75;6.25;;;;;-149.35;100.00;64108.03;5016753;28;46770;-53
2022/06/19 08:37:32;;;;;;;;;9.00;5.75;;;;;-149.35;100.00;64108.03;5015535;28;45764;-47
2022/06/19 08:39:58;;;;;;;;;8.80;7.40;;;;;-149.35;100.00;64108.03;5016720;28;45303;-50
2022/06/19 08:42:59;;;;;;;;;8.00;7.00;;;;;-149.35;100.00;64108.03;5017461;28;45555;-51
2022/06/19 08:45:36;;;;;;;;;8.40;7.20;;;;;-149.35;100.00;64108.03;5000327;28;46425;-48
2022/06/19 08:48:16;;;;;;;;;7.20;7.00;;;;;-149.35;100.00;64108.03;4999741;28;45248;-49
2022/06/19 08:50:49;;;;;;;;;7.20;7.20;;;;;-149.35;100.00;64108.03;5017689;28;45718;-49
2022/06/19 08:53:40;;;;;;;;;9.60;6.00;;;;;-149.35;100.00;64108.03;5017704;28;45433;-52
2022/06/19 08:56:12;;;;;;;;;7.00;7.00;;;;;-149.35;100.00;64108.03;5016221;28;46810;-49
2022/06/19 08:58:57;;;;;;;;;9.00;7.40;;;;;-149.35;100.00;64108.03;5016032;28;45493;-50
2022/06/19 09:01:40;;;;;;;;;14.80;8.00;;;;;-149.35;100.00;64108.03;5017206;28;45402;-51
2022/06/19 09:07:05;;;;;;;;;8.20;7.00;;;;;-149.35;100.00;64108.03;5016148;28;45375;-49
2022/06/19 09:09:33;;;;;;;;;12.75;10.75;;;;;-149.35;100.00;64108.03;5015961;28;45359;-49
2022/06/19 09:12:33;;;;;;;;;12.60;9.00;;;;;-149.35;100.00;64108.03;5016866;28;45389;-49
2022/06/19 09:15:01;;;;;;;;;14.20;10.00;;;;;-149.35;100.00;64108.03;5015904;28;45600;-46
2022/06/19 09:17:34;;;;;;;;;10.60;9.00;;;;;-149.35;100.00;64108.03;5016672;28;45394;-52
2022/06/19 09:20:09;;;;;;;;;11.60;11.00;;;;;-149.35;100.00;64108.03;5015788;28;45340;-47
2022/06/19 09:22:50;;;;;;;;;11.60;11.00;;;;;-149.35;100.00;64108.03;5014709;28;46230;-48
2022/06/19 09:25:15;;;;;;;;;12.20;11.60;;;;;-149.35;100.00;64108.03;5017268;28;45250;-51
2022/06/19 09:27:56;;;;;;;;;13.75;12.50;;;;;-149.35;100.00;64108.03;5017017;28;46403;-47
2022/06/19 09:30:32;;;;;;;;;12.00;11.40;;;;;-149.35;100.00;64108.03;5015590;28;45310;-49
2022/06/19 09:33:03;;;;;;;;;14.80;13.60;;;;;-149.35;100.00;64108.03;5017230;28;45704;-49
2022/06/19 09:36:09;;;;;;;;;15.60;13.20;;;;;-149.35;100.00;64108.03;4998317;28;45379;-48
2022/06/19 09:38:43;;;;;;;;;11.00;10.40;;;;;-149.35;100.00;64108.03;4992970;28;46866;-47
2022/06/19 09:41:13;;;;;;;;;13.00;11.80;;;;;-149.35;100.00;64108.03;5015559;28;45395;-47
2022/06/19 09:43:58;;;;;;;;;9.60;9.40;;;;;-149.35;100.00;64108.03;4999986;28;45441;-50
2022/06/19 09:46:29;;;;;;;;;12.80;10.00;;;;;-149.35;100.00;64108.03;5016248;28;45630;-48
2022/06/19 09:48:58;;;;;;;;;16.60;15.00;;;;;-149.35;100.00;64108.03;5014980;28;45674;-49
2022/06/19 09:51:53;;;;;;;;;16.40;16.00;;;;;-149.35;100.00;64108.03;5015384;28;45435;-50
2022/06/19 09:54:26;;;;;;;;;18.00;15.60;;;;;-149.35;100.00;64108.03;4996843;28;45794;-48
2022/06/19 09:57:18;;;;;;;;;14.40;10.20;;;;;-149.35;100.00;64108.03;4995977;28;45236;-51
2022/06/19 10:00:06;;;;;;;;;15.80;13.80;;;;;-149.35;100.00;64108.03;5029153;28;46613;-49
2022/06/19 10:03:04;;;;;;;;;15.80;14.60;;;;;-149.35;100.00;64108.03;5031708;28;45465;-51
2022/06/19 10:05:38;;;;;;;;;14.40;11.40;;;;;-149.35;100.00;64108.03;4982828;28;45483;-53
2022/06/19 10:08:08;;;;;;;;;12.80;12.40;;;;;-149.35;100.00;64108.03;5016439;28;45350;-49
2022/06/19 10:10:59;;;;;;;;;11.80;11.80;;;;;-149.35;100.00;64108.03;4972565;28;46042;-54
2022/06/19 10:13:33;;;;;;;;;16.40;14.40;;;;;-149.35;100.00;64108.03;4990769;28;45456;-53
2022/06/19 10:15:58;;;;;;;;;10.20;10.20;;;;;-149.35;100.00;64108.03;4991117;28;45432;-52
2022/06/19 10:18:46;;;;;;;;;12.50;12.50;;;;;-149.35;100.00;64108.03;5007555;28;45567;-52
2022/06/19 10:24:37;;;;;;;;;19.40;16.00;;;;;-149.35;100.00;64108.03;5004198;28;45519;-54
2022/06/19 10:27:22;;;;;;;;;14.60;11.60;;;;;-149.35;100.00;64108.03;4991036;28;45814;-50
2022/06/19 10:30:12;;;;;;;;;15.60;13.00;;;;;-149.35;100.00;64108.03;4991904;28;45847;-49
2022/06/19 10:32:40;;;;;;;;;16.20;12.60;;;;;-149.35;100.00;64108.03;4976342;28;45614;-50
2022/06/19 10:35:06;;;;;;;;;16.40;14.40;;;;;-149.35;100.00;64108.03;4991836;28;45605;-52
2022/06/19 10:37:37;;;;;;;;;16.25;14.50;;;;;-149.35;100.00;64108.03;4990716;28;45655;-55
2022/06/19 10:40:13;;;;;;;;;17.60;14.40;;;;;-149.35;100.00;64108.03;4992173;28;45341;-56
2022/06/19 10:42:48;;;;;;;;;18.20;16.40;;;;;-149.35;100.00;64108.03;5006725;28;45859;-52
2022/06/19 10:45:19;;;;;;;;;16.60;13.20;;;;;-149.35;100.00;64108.03;4991979;28;45380;-57
2022/06/19 10:48:04;;;;;;;;;17.00;15.80;;;;;-149.35;100.00;64108.03;4977210;28;45516;-52
2022/06/19 10:50:41;;;;;;;;;18.00;14.80;;;;;-149.35;100.00;64108.03;4989529;28;45428;-55
2022/06/19 10:53:32;;;;;;;;;17.40;17.00;;;;;-149.35;100.00;64108.03;4991580;28;46523;-52
2022/06/19 10:56:09;;;;;;;;;15.00;13.60;;;;;-149.35;100.00;64108.03;4990082;28;45544;-54
2022/06/19 10:58:35;;;;;;;;;12.00;12.00;;;;;-149.35;100.00;64108.03;4990731;28;45439;-50
2022/06/19 11:01:04;;;;;;;;;13.25;12.00;;;;;-149.35;100.00;64108.03;4988020;28;45737;-53
2022/06/19 11:06:46;;;;;;;;;18.00;16.00;;;;;-149.35;100.00;64108.03;4991206;28;45430;-53
2022/06/19 11:09:37;;;;;;;;;18.80;16.40;;;;;-149.35;100.00;64108.03;4991670;28;45418;-51
2022/06/19 11:12:13;;;;;;;;;18.40;17.40;;;;;-149.35;100.00;64108.03;4982132;28;45338;-56
2022/06/19 11:14:48;;;;;;;;;21.60;16.60;;;;;-149.35;100.00;64108.03;4973458;28;45936;-53
2022/06/19 11:17:33;;;;;;;;;21.40;17.40;;;;;-149.35;100.00;64108.03;4991600;28;45660;-51
2022/06/19 11:20:17;;;;;;;;;17.60;16.00;;;;;-149.35;100.00;64108.03;4991132;28;45948;-50
2022/06/19 11:22:44;;;;;;;;;17.80;17.80;;;;;-149.35;100.00;64108.03;5006090;28;45625;-51
2022/06/19 11:25:26;;;;;;;;;19.00;16.40;;;;;-149.35;100.00;64108.03;4990296;28;45946;-52